createdAt,value
2018-06-11T00:01:33.259Z,68.87
2018-06-11T00:04:02.674Z,69.18
2018-06-11T00:06:31.984Z,69.11
2018-06-11T00:09:00.917Z,68.79
2018-06-11T00:11:30.754Z,68.98
2018-06-11T00:13:59.903Z,69.15
2018-06-11T00:16:31.166Z,69.26
2018-06-11T00:19:00.988Z,69.24
2018-06-11T00:21:30.271Z,69.10
2018-06-11T00:23:59.358Z,68.91
2018-06-11T00:26:29.221Z,69.07
2018-06-11T00:28:58.599Z,69.01
2018-06-11T00:31:27.725Z,68.82
2018-06-11T00:33:56.939Z,68.87
2018-06-11T00:36:26.092Z,68.99
2018-06-11T00:38:55.315Z,68.86
2018-06-11T00:41:24.871Z,68.77
2018-06-11T00:43:54.531Z,68.84
2018-06-11T00:46:24.263Z,68.90
2018-06-11T00:48:53.424Z,68.68
2018-06-11T00:51:23.120Z,69.04
2018-06-11T00:53:52.312Z,68.84
2018-06-11T00:56:21.244Z,68.96
2018-06-11T00:58:51.662Z,68.94
2018-06-11T01:01:21.643Z,69.19
2018-06-11T01:03:50.875Z,68.70
2018-06-11T01:06:19.919Z,68.64
2018-06-11T01:08:49.492Z,69.15
2018-06-11T01:11:18.651Z,68.77
2018-06-11T01:13:47.658Z,69.13
2018-06-11T01:16:17.527Z,68.85
2018-06-11T01:18:47.163Z,68.77
2018-06-11T01:21:17.118Z,69.10
2018-06-11T01:23:47.068Z,69.04
2018-06-11T01:26:17.269Z,68.72
2018-06-11T01:28:47.829Z,69.18
2018-06-11T01:31:17.395Z,69.25
2018-06-11T01:33:47.609Z,68.97
2018-06-11T01:36:17.042Z,68.77
2018-06-11T01:38:47.188Z,69.07
2018-06-11T01:41:16.403Z,69.05
2018-06-11T01:43:45.503Z,69.00
2018-06-11T01:46:15.350Z,69.00
2018-06-11T01:48:44.979Z,69.05
2018-06-11T01:51:14.330Z,68.87
2018-06-11T01:53:44.011Z,69.10
2018-06-11T01:56:13.875Z,68.77
2018-06-11T01:58:43.060Z,69.25
2018-06-11T02:01:12.577Z,68.83
2018-06-11T02:03:43.090Z,69.16
2018-06-11T02:06:12.870Z,69.27
2018-06-11T02:08:42.858Z,69.06
2018-06-11T02:11:13.677Z,69.03
2018-06-11T02:13:43.151Z,68.99
2018-06-11T02:16:13.096Z,68.81
2018-06-11T02:18:42.199Z,68.87
2018-06-11T02:21:11.266Z,69.10
2018-06-11T02:23:40.666Z,69.18
2018-06-11T02:26:09.970Z,69.07
2018-06-11T02:28:39.263Z,68.96
2018-06-11T02:31:08.605Z,68.81
2018-06-11T02:33:37.971Z,68.98
2018-06-11T02:36:07.492Z,68.88
2018-06-11T02:38:36.767Z,69.00
2018-06-11T02:41:06.415Z,69.16
2018-06-11T02:43:36.016Z,69.05
2018-06-11T02:46:05.594Z,68.82
2018-06-11T02:48:34.920Z,68.98
2018-06-11T02:51:04.395Z,68.97
2018-06-11T02:53:33.761Z,68.66
2018-06-11T02:56:03.532Z,68.58
2018-06-11T02:58:32.639Z,68.66
2018-06-11T03:01:02.044Z,68.86
2018-06-11T03:03:31.348Z,68.72
2018-06-11T03:06:00.518Z,68.79
2018-06-11T03:08:29.929Z,68.58
2018-06-11T03:10:59.023Z,68.59
2018-06-11T03:13:28.536Z,68.59
2018-06-11T03:15:57.651Z,68.76
2018-06-11T03:18:26.947Z,68.54
2018-06-11T03:20:56.147Z,68.90
2018-06-11T03:23:25.895Z,68.93
2018-06-11T03:25:55.240Z,68.81
2018-06-11T03:28:24.533Z,68.45
2018-06-11T03:30:53.856Z,68.85
2018-06-11T03:33:23.054Z,68.50
2018-06-11T03:35:52.868Z,68.32
2018-06-11T03:38:22.164Z,68.76
2018-06-11T03:40:51.140Z,68.57
2018-06-11T03:43:20.768Z,68.45
2018-06-11T03:45:49.968Z,68.41
2018-06-11T03:48:19.386Z,68.41
2018-06-11T03:50:48.681Z,68.76
2018-06-11T03:53:17.668Z,68.67
2018-06-11T03:55:47.012Z,68.56
2018-06-11T03:58:16.375Z,68.56
2018-06-11T04:00:45.682Z,68.61
2018-06-11T04:03:14.791Z,68.71
2018-06-11T04:05:44.456Z,68.51
2018-06-11T04:08:13.839Z,68.39
2018-06-11T04:10:42.982Z,68.53
2018-06-11T04:13:12.390Z,68.38
2018-06-11T04:15:42.232Z,68.66
2018-06-11T04:18:11.499Z,68.65
2018-06-11T04:20:40.834Z,68.67
2018-06-11T04:23:10.019Z,68.66
2018-06-11T04:25:39.197Z,68.23
2018-06-11T04:28:08.604Z,68.41
2018-06-11T04:30:38.550Z,68.42
2018-06-11T04:33:07.831Z,68.52
2018-06-11T04:35:37.103Z,68.31
2018-06-11T04:38:06.546Z,68.63
2018-06-11T04:40:35.840Z,68.41
2018-06-11T04:43:05.254Z,68.29
2018-06-11T04:45:34.478Z,68.61
2018-06-11T04:48:04.011Z,68.71
2018-06-11T04:50:33.344Z,68.32
2018-06-11T04:53:02.531Z,68.56
2018-06-11T04:55:31.943Z,68.46
2018-06-11T04:58:01.768Z,68.44
2018-06-11T05:00:31.343Z,68.50
2018-06-11T05:03:00.713Z,68.68
2018-06-11T05:05:30.102Z,69.03
2018-06-11T05:07:59.269Z,71.33
2018-06-11T05:10:28.494Z,70.86
2018-06-11T05:12:57.867Z,71.27
2018-06-11T05:15:27.155Z,71.81
2018-06-11T05:17:56.387Z,71.81
2018-06-11T05:20:25.563Z,71.65
2018-06-11T05:22:54.783Z,72.09
2018-06-11T05:25:24.110Z,72.20
2018-06-11T05:27:53.367Z,71.78
2018-06-11T05:30:24.251Z,72.17
2018-06-11T05:32:53.737Z,71.27
2018-06-11T05:35:22.912Z,70.42
2018-06-11T05:37:52.167Z,69.81
2018-06-11T05:40:21.843Z,69.47
2018-06-11T05:42:51.344Z,69.06
2018-06-11T05:45:20.548Z,69.20
2018-06-11T05:47:50.227Z,68.94
2018-06-11T05:50:19.647Z,68.83
2018-06-11T05:52:48.941Z,68.88
2018-06-11T05:55:18.483Z,68.95
2018-06-11T05:57:47.496Z,68.89
2018-06-11T06:00:16.419Z,68.59
2018-06-11T06:02:45.824Z,68.59
2018-06-11T06:05:15.059Z,68.57
2018-06-11T06:07:44.555Z,68.51
2018-06-11T06:10:15.246Z,68.43
2018-06-11T06:12:44.509Z,68.66
2018-06-11T06:15:13.903Z,67.88
2018-06-11T06:17:43.707Z,67.83
2018-06-11T06:20:13.047Z,71.32
2018-06-11T06:22:42.526Z,72.20
2018-06-11T06:25:11.710Z,72.03
2018-06-11T06:27:40.940Z,72.55
2018-06-11T06:30:10.400Z,72.37
2018-06-11T06:32:39.685Z,72.29
2018-06-11T06:35:08.795Z,72.40
2018-06-11T06:37:38.130Z,72.64
2018-06-11T06:40:07.436Z,71.96
2018-06-11T06:42:36.542Z,72.40
2018-06-11T06:45:06.147Z,71.99
2018-06-11T06:47:35.511Z,71.94
2018-06-11T06:50:04.967Z,71.87
2018-06-11T06:52:34.784Z,71.76
2018-06-11T06:55:04.140Z,71.91
2018-06-11T06:57:33.463Z,71.81
2018-06-11T07:00:03.015Z,71.62
2018-06-11T07:02:32.170Z,71.37
2018-06-11T07:05:01.451Z,71.61
2018-06-11T07:07:31.111Z,71.39
2018-06-11T07:10:00.388Z,70.74
2018-06-11T07:12:29.461Z,71.23
2018-06-11T07:14:59.301Z,71.17
2018-06-11T07:17:28.595Z,71.53
2018-06-11T07:19:58.709Z,71.22
2018-06-11T07:22:27.872Z,70.99
2018-06-11T07:24:57.239Z,71.23
2018-06-11T07:27:26.702Z,70.79
2018-06-11T07:29:55.840Z,70.85
2018-06-11T07:32:25.666Z,70.16
2018-06-11T07:34:56.315Z,70.77
2018-06-11T07:37:25.603Z,70.52
2018-06-11T07:39:57.110Z,70.51
2018-06-11T07:42:38.159Z,70.86
2018-06-11T07:45:11.441Z,70.89
2018-06-11T07:47:40.471Z,70.23
2018-06-11T07:50:09.623Z,70.29
2018-06-11T07:52:38.826Z,69.49
2018-06-11T07:55:08.200Z,70.04
2018-06-11T07:57:38.692Z,69.57
2018-06-11T08:00:08.259Z,69.51
2018-06-11T08:02:37.637Z,69.54
2018-06-11T08:05:07.459Z,69.65
2018-06-11T08:07:37.733Z,69.05
2018-06-11T08:10:07.389Z,69.38
2018-06-11T08:12:36.837Z,69.09
2018-06-11T08:15:06.019Z,69.29
2018-06-11T08:17:36.938Z,69.20
2018-06-11T08:20:06.497Z,68.91
2018-06-11T08:22:35.671Z,68.69
2018-06-11T08:25:05.271Z,68.95
2018-06-11T08:27:34.617Z,68.72
2018-06-11T08:30:04.212Z,68.97
2018-06-11T08:32:33.782Z,68.97
2018-06-11T08:35:03.815Z,69.00
2018-06-11T08:37:33.340Z,68.69
2018-06-11T08:40:02.738Z,68.89
2018-06-11T08:42:32.999Z,68.47
2018-06-11T08:45:02.374Z,68.34
2018-06-11T08:47:31.638Z,68.20
2018-06-11T08:50:01.727Z,68.05
2018-06-11T08:52:32.116Z,68.33
2018-06-11T08:55:01.371Z,68.08
2018-06-11T08:57:31.019Z,68.14
2018-06-11T09:00:00.331Z,67.90
2018-06-11T09:02:29.581Z,68.40
2018-06-11T09:04:59.020Z,67.90
2018-06-11T09:07:28.425Z,67.86
2018-06-11T09:09:57.593Z,67.86
2018-06-11T09:12:26.822Z,67.47
2018-06-11T09:14:56.130Z,68.02
2018-06-11T09:17:25.292Z,67.64
2018-06-11T09:19:54.720Z,67.87
2018-06-11T09:22:24.084Z,67.72
2018-06-11T09:24:53.278Z,67.59
2018-06-11T09:27:22.522Z,67.30
2018-06-11T09:29:52.001Z,67.05
2018-06-11T09:32:21.313Z,67.58
2018-06-11T09:34:50.503Z,67.83
2018-06-11T09:39:50.893Z,68.22
2018-06-11T09:42:20.580Z,67.71
2018-06-11T09:44:50.190Z,69.19
2018-06-11T09:47:19.464Z,68.85
2018-06-11T09:49:48.692Z,69.23
2018-06-11T09:52:18.018Z,68.96
2018-06-11T09:54:47.603Z,69.23
2018-06-11T09:57:17.021Z,69.38
2018-06-11T09:59:46.351Z,68.83
2018-06-11T10:02:15.816Z,69.06
2018-06-11T10:04:44.804Z,68.84
2018-06-11T10:07:14.236Z,68.28
2018-06-11T10:09:43.596Z,68.92
2018-06-11T10:12:13.284Z,68.97
2018-06-11T10:14:43.259Z,68.96
2018-06-11T10:17:13.224Z,68.74
2018-06-11T10:19:42.701Z,68.89
2018-06-11T10:22:12.646Z,69.71
2018-06-11T10:24:42.165Z,68.70
2018-06-11T10:27:13.943Z,70.08
2018-06-11T10:29:43.331Z,69.80
2018-06-11T10:32:12.644Z,68.83
2018-06-11T10:34:41.940Z,70.16
2018-06-11T10:37:11.124Z,68.96
2018-06-11T10:39:40.243Z,67.84
2018-06-11T10:42:11.118Z,68.16
2018-06-11T10:44:40.280Z,68.14
2018-06-11T10:47:09.661Z,67.82
2018-06-11T10:52:16.364Z,67.52
2018-06-11T10:54:45.646Z,67.98
2018-06-11T10:57:15.028Z,67.30
2018-06-11T10:59:44.385Z,67.60
2018-06-11T11:02:13.636Z,67.46
2018-06-11T11:04:43.068Z,67.58
2018-06-11T11:07:12.900Z,67.78
2018-06-11T11:09:42.667Z,67.36
2018-06-11T11:12:12.113Z,67.87
2018-06-11T11:14:42.578Z,67.74
2018-06-11T11:17:11.987Z,67.32
2018-06-11T11:19:47.578Z,67.41
2018-06-11T11:22:29.558Z,67.58
2018-06-11T11:24:58.917Z,68.08
2018-06-11T11:27:28.549Z,67.84
2018-06-11T11:29:59.716Z,67.72
2018-06-11T11:32:29.389Z,67.14
2018-06-11T11:34:58.821Z,67.50
2018-06-11T11:37:28.331Z,67.65
2018-06-11T11:39:58.588Z,67.52
2018-06-11T11:42:27.996Z,67.52
2018-06-11T11:44:57.971Z,67.42
2018-06-11T11:47:27.259Z,68.22
2018-06-11T11:49:56.591Z,67.35
2018-06-11T11:52:25.765Z,67.30
2018-06-11T11:54:55.021Z,67.44
2018-06-11T11:57:24.393Z,67.71
2018-06-11T11:59:53.717Z,68.90
2018-06-11T12:02:22.795Z,68.80
2018-06-11T12:04:52.155Z,69.05
2018-06-11T12:07:21.768Z,68.53
2018-06-11T12:09:50.984Z,68.57
2018-06-11T12:12:21.672Z,68.69
2018-06-11T12:14:56.685Z,68.26
2018-06-11T12:17:26.090Z,67.57
2018-06-11T12:19:55.188Z,68.16
2018-06-11T12:22:25.015Z,67.58
2018-06-11T12:24:54.382Z,66.90
2018-06-11T12:27:23.845Z,67.14
2018-06-11T12:29:53.461Z,67.41
2018-06-11T12:32:22.941Z,67.41
2018-06-11T12:34:52.281Z,67.77
2018-06-11T12:37:21.584Z,68.44
2018-06-11T12:39:51.410Z,68.69
2018-06-11T12:42:21.101Z,68.58
2018-06-11T12:44:51.253Z,68.97
2018-06-11T12:47:21.021Z,66.68
2018-06-11T12:49:53.286Z,68.16
2018-06-11T12:52:23.108Z,66.79
2018-06-11T12:54:52.742Z,67.71
2018-06-11T12:57:21.769Z,67.89
2018-06-11T12:59:50.827Z,67.88
2018-06-11T13:02:20.117Z,67.85
2018-06-11T13:04:49.635Z,68.84
2018-06-11T13:07:19.529Z,68.24
2018-06-11T13:09:49.386Z,68.58
2018-06-11T13:12:22.274Z,68.62
2018-06-11T13:14:52.948Z,68.35
2018-06-11T13:17:22.194Z,68.63
2018-06-11T13:19:51.435Z,68.09
2018-06-11T13:22:20.832Z,68.94
2018-06-11T13:24:50.135Z,68.28
2018-06-11T13:27:19.865Z,68.65
2018-06-11T13:29:49.311Z,68.63
2018-06-11T13:32:18.648Z,68.66
2018-06-11T13:34:47.655Z,68.40
2018-06-11T13:37:17.085Z,68.41
2018-06-11T13:39:46.593Z,68.76
2018-06-11T13:42:15.607Z,68.70
2018-06-11T13:44:45.365Z,68.62
2018-06-11T13:49:39.624Z,68.02
2018-06-11T13:52:08.929Z,67.93
2018-06-11T13:54:38.415Z,68.44
2018-06-11T13:57:08.229Z,68.71
2018-06-11T13:59:37.321Z,68.22
2018-06-11T14:02:06.824Z,68.51
2018-06-11T14:04:36.214Z,68.37
2018-06-11T14:07:05.575Z,68.35
2018-06-11T14:09:34.653Z,68.58
2018-06-11T14:12:04.049Z,68.73
2018-06-11T14:14:33.553Z,67.91
2018-06-11T14:17:03.196Z,68.20
2018-06-11T14:19:32.169Z,68.11
2018-06-11T14:22:01.607Z,68.56
2018-06-11T14:24:30.688Z,67.72
2018-06-11T14:27:00.077Z,68.26
2018-06-11T14:29:29.433Z,68.55
2018-06-11T14:31:59.501Z,68.24
2018-06-11T14:34:28.760Z,68.40
2018-06-11T14:36:58.011Z,68.64
2018-06-11T14:39:27.079Z,68.26
2018-06-11T14:41:56.412Z,68.43
2018-06-11T14:44:25.875Z,68.16
2018-06-11T14:46:55.149Z,67.41
2018-06-11T14:49:24.580Z,66.29
2018-06-11T14:51:53.884Z,66.96
2018-06-11T14:54:23.015Z,67.02
2018-06-11T14:56:52.093Z,66.73
2018-06-11T14:59:21.375Z,66.81
2018-06-11T15:01:50.485Z,66.80
2018-06-11T15:04:20.467Z,66.64
2018-06-11T15:06:49.979Z,66.44
2018-06-11T15:09:19.179Z,67.02
2018-06-11T15:11:48.429Z,66.70
2018-06-11T15:14:17.648Z,66.01
2018-06-11T15:16:47.001Z,66.89
2018-06-11T15:19:16.812Z,67.07
2018-06-11T15:21:46.333Z,66.61
2018-06-11T15:24:15.999Z,66.82
2018-06-11T15:26:45.728Z,66.48
2018-06-11T15:29:18.262Z,67.19
2018-06-11T15:31:47.739Z,66.23
2018-06-11T15:34:17.165Z,66.79
2018-06-11T15:36:47.026Z,66.27
2018-06-11T15:39:16.064Z,67.00
2018-06-11T15:41:45.227Z,66.99
2018-06-11T15:44:14.295Z,66.53
2018-06-11T15:46:43.805Z,66.00
2018-06-11T15:49:15.888Z,64.99
2018-06-11T15:51:45.951Z,64.44
2018-06-11T15:54:15.267Z,64.76
2018-06-11T15:56:44.330Z,63.30
2018-06-11T15:59:13.296Z,63.17
2018-06-11T16:01:43.006Z,62.32
2018-06-11T16:04:12.107Z,62.63
2018-06-11T16:06:41.215Z,61.74
2018-06-11T16:09:11.331Z,62.91
2018-06-11T16:11:40.332Z,65.35
2018-06-11T16:14:10.414Z,65.29
2018-06-11T16:16:39.690Z,66.28
2018-06-11T16:19:08.946Z,65.86
2018-06-11T16:21:38.085Z,66.01
2018-06-11T16:24:07.378Z,65.44
2018-06-11T16:26:36.458Z,65.62
2018-06-11T16:29:06.314Z,65.58
2018-06-11T16:31:36.168Z,65.81
2018-06-11T16:34:05.209Z,65.87
2018-06-11T16:36:35.647Z,66.02
2018-06-11T16:39:06.723Z,66.05
2018-06-11T16:41:36.513Z,66.02
2018-06-11T16:44:05.905Z,66.07
2018-06-11T16:46:35.190Z,66.28
2018-06-11T16:49:05.019Z,65.78
2018-06-11T16:51:43.317Z,66.11
2018-06-11T16:54:12.741Z,66.14
2018-06-11T16:56:41.810Z,66.07
2018-06-11T16:59:11.336Z,66.09
2018-06-11T17:01:40.675Z,66.03
2018-06-11T17:04:10.112Z,66.03
2018-06-11T17:06:39.387Z,66.06
2018-06-11T17:09:09.423Z,65.63
2018-06-11T17:11:39.198Z,66.42
2018-06-11T17:14:08.363Z,65.94
2018-06-11T17:16:37.847Z,65.68
2018-06-11T17:19:07.240Z,65.92
2018-06-11T17:21:37.129Z,65.93
2018-06-11T17:24:06.557Z,66.24
2018-06-11T17:26:35.860Z,65.70
2018-06-11T17:29:07.660Z,65.41
2018-06-11T17:31:37.253Z,65.72
2018-06-11T17:34:06.591Z,65.80
2018-06-11T17:36:35.843Z,65.70
2018-06-11T17:39:06.575Z,65.79
2018-06-11T17:41:35.776Z,65.79
2018-06-11T17:44:05.460Z,65.46
2018-06-11T17:46:34.731Z,65.42
2018-06-11T17:49:04.444Z,65.50
2018-06-11T17:51:33.978Z,65.50
2018-06-11T17:54:03.480Z,65.11
2018-06-11T17:56:32.640Z,64.76
2018-06-11T17:59:02.403Z,64.85
2018-06-11T18:01:31.587Z,64.60
2018-06-11T18:04:01.078Z,64.67
2018-06-11T18:06:30.291Z,64.45
2018-06-11T18:08:59.909Z,64.71
2018-06-11T18:11:29.153Z,64.63
2018-06-11T18:13:59.713Z,64.63
2018-06-11T18:16:28.812Z,64.80
2018-06-11T18:18:57.999Z,65.22
2018-06-11T18:21:27.308Z,65.21
2018-06-11T18:23:56.836Z,65.14
2018-06-11T18:26:26.228Z,64.92
2018-06-11T18:28:56.041Z,65.45
2018-06-11T18:31:25.083Z,65.30
2018-06-11T18:33:55.283Z,65.23
2018-06-11T18:36:25.164Z,65.12
2018-06-11T18:38:54.413Z,65.34
2018-06-11T18:41:23.824Z,65.34
2018-06-11T18:43:53.092Z,65.52
2018-06-11T18:46:22.314Z,65.51
2018-06-11T18:48:51.535Z,65.40
2018-06-11T18:51:20.923Z,65.42
2018-06-11T18:53:50.121Z,65.60
2018-06-11T18:56:19.378Z,65.71
2018-06-11T18:58:49.679Z,66.00
2018-06-11T19:01:19.957Z,65.85
2018-06-11T19:03:49.496Z,65.79
2018-06-11T19:06:18.796Z,66.25
2018-06-11T19:08:50.163Z,66.07
2018-06-11T19:11:19.977Z,66.11
2018-06-11T19:13:49.475Z,66.29
2018-06-11T19:16:19.043Z,66.05
2018-06-11T19:18:48.488Z,66.45
2018-06-11T19:21:18.007Z,66.47
2018-06-11T19:23:48.113Z,66.49
2018-06-11T19:26:17.485Z,66.82
2018-06-11T19:28:46.983Z,66.89
2018-06-11T19:31:16.247Z,66.81
2018-06-11T19:33:45.516Z,66.85
2018-06-11T19:36:15.045Z,67.00
2018-06-11T19:38:44.363Z,66.64
2018-06-11T19:41:13.802Z,66.89
2018-06-11T19:43:43.089Z,67.09
2018-06-11T19:46:12.325Z,66.83
2018-06-11T19:48:41.600Z,67.21
2018-06-11T19:51:10.916Z,66.90
2018-06-11T19:53:40.773Z,67.07
2018-06-11T19:56:09.860Z,67.14
2018-06-11T19:58:39.157Z,67.28
2018-06-11T20:01:08.764Z,66.88
2018-06-11T20:03:38.252Z,67.18
2018-06-11T20:06:07.865Z,67.34
2018-06-11T20:08:37.654Z,67.30
2018-06-11T20:13:35.549Z,67.05
2018-06-11T20:16:05.012Z,67.02
2018-06-11T20:18:34.723Z,67.31
2018-06-11T20:21:03.897Z,67.33
2018-06-11T20:23:33.320Z,67.28
2018-06-11T20:26:02.751Z,67.50
2018-06-11T20:28:32.109Z,67.43
2018-06-11T20:31:01.426Z,67.72
2018-06-11T20:33:30.785Z,67.68
2018-06-11T20:35:59.985Z,67.57
2018-06-11T20:38:29.073Z,67.43
2018-06-11T20:40:58.267Z,67.50
2018-06-11T20:43:27.701Z,67.56
2018-06-11T20:45:57.089Z,67.27
2018-06-11T20:48:26.459Z,67.26
2018-06-11T20:50:55.541Z,67.43
2018-06-11T20:53:24.658Z,67.69
2018-06-11T20:55:54.609Z,67.86
2018-06-11T20:58:24.079Z,67.53
2018-06-11T21:00:53.115Z,67.64
2018-06-11T21:03:22.496Z,67.65
2018-06-11T21:05:52.319Z,67.79
2018-06-11T21:08:21.579Z,67.63
2018-06-11T21:10:50.863Z,67.96
2018-06-11T21:13:20.141Z,67.85
2018-06-11T21:15:49.626Z,67.68
2018-06-11T21:18:19.068Z,67.71
2018-06-11T21:20:48.393Z,67.85
2018-06-11T21:23:17.709Z,68.08
2018-06-11T21:25:46.924Z,68.49
2018-06-11T21:28:16.142Z,68.13
2018-06-11T21:30:45.392Z,68.39
2018-06-11T21:33:14.658Z,68.72
2018-06-11T21:35:44.381Z,69.02
2018-06-11T21:38:13.667Z,69.34
2018-06-11T21:40:42.892Z,69.16
2018-06-11T21:43:12.683Z,69.42
2018-06-11T21:45:42.069Z,69.48
2018-06-11T21:48:11.387Z,69.19
2018-06-11T21:50:40.676Z,69.09
2018-06-11T21:53:09.941Z,69.21
2018-06-11T21:55:39.127Z,69.31
2018-06-11T21:58:08.732Z,69.48
2018-06-11T22:00:38.268Z,69.08
2018-06-11T22:03:07.579Z,69.35
2018-06-11T22:05:36.892Z,69.32
2018-06-11T22:08:06.198Z,69.13
2018-06-11T22:10:35.639Z,69.06
2018-06-11T22:13:04.987Z,69.29
2018-06-11T22:15:34.399Z,69.26
2018-06-11T22:18:04.320Z,69.47
2018-06-11T22:20:33.772Z,69.12
2018-06-11T22:23:04.364Z,69.24
2018-06-11T22:25:35.984Z,69.55
2018-06-11T22:28:05.442Z,69.73
2018-06-11T22:30:34.906Z,69.50
2018-06-11T22:33:03.893Z,69.39
2018-06-11T22:35:33.004Z,69.32
2018-06-11T22:38:02.238Z,69.33
2018-06-11T22:40:31.695Z,69.34
2018-06-11T22:43:00.788Z,69.62
2018-06-11T22:45:30.010Z,69.51
2018-06-11T22:47:59.207Z,69.20
2018-06-11T22:50:28.480Z,68.99
2018-06-11T22:52:57.502Z,69.07
2018-06-11T22:55:26.904Z,69.09
2018-06-11T22:57:56.311Z,68.78
2018-06-11T23:00:33.900Z,68.99
2018-06-11T23:03:03.416Z,68.77
2018-06-11T23:05:32.709Z,68.85
2018-06-11T23:08:02.119Z,68.70
2018-06-11T23:10:31.433Z,68.93
2018-06-11T23:13:00.775Z,68.88
2018-06-11T23:15:30.075Z,68.69
2018-06-11T23:17:59.432Z,68.61
2018-06-11T23:20:28.896Z,68.81
2018-06-11T23:22:58.204Z,68.91
2018-06-11T23:25:27.613Z,68.69
2018-06-11T23:27:57.115Z,69.07
2018-06-11T23:30:26.371Z,69.01
2018-06-11T23:32:55.598Z,68.72
2018-06-11T23:35:24.888Z,68.65
2018-06-11T23:37:54.682Z,68.87
2018-06-11T23:40:24.040Z,68.66
2018-06-11T23:42:53.412Z,68.50
2018-06-11T23:45:23.019Z,68.41
2018-06-11T23:47:52.200Z,68.81
2018-06-11T23:50:21.548Z,69.00
2018-06-11T23:52:50.930Z,68.67
2018-06-11T23:55:20.531Z,68.77
2018-06-11T23:57:49.944Z,68.80
